Latest Weather Observations for Horsham

IDV60801

Issued at 6:32 pm EST Thursday 25 May 2017 (issued every 30 minutes, with the page automatically refreshed every 10 minutes)

About weather observations | Map of weather stations | Latest weather observations for VIC | Other Formats
Station Details ID: 079100 Name: HORSHAM AERODROME Lat: -36.67 Lon: 142.17 Height: 133.8 m
Data from the previous 72 hours. | See also: Recent months at Horsham
Date/Time
EST
Temp
°C
App
Temp
°C
Dew
Point
°C
Rel
Hum
%
Delta-T
°C
Wind Press
QNH
hPa
Press
MSL
hPa
Rain since
9am
mm
Dir  Spd
km/h
Gust
km/h
Spd
kts
Gust
kts
25/06:30pm 13.9 11.4 12.3 90 0.9 NW 17 20 9 11 1020.1 1020.2 0.0
25/06:00pm 14.0 11.8 12.2 89 1.0 NW 15 17 8 9 1019.9 1020.0 0.0
25/05:30pm 14.4 11.4 12.1 86 1.3 NW 19 24 10 13 1019.5 1019.6 0.0
25/05:00pm 16.1 12.8 11.7 75 2.4 WNW 20 26 11 14 1019.4 1019.5 0.0
25/04:30pm 16.7 13.3 11.4 71 2.9 WNW 20 26 11 14 1019.3 1019.4 0.0
25/04:00pm 16.9 12.7 11.0 68 3.2 WNW 24 32 13 17 1019.0 1019.1 0.0
25/03:30pm 17.0 12.7 10.8 67 3.3 WNW 24 32 13 17 1019.0 1019.1 0.0
25/03:00pm 17.1 12.4 10.7 66 3.4 WNW 26 33 14 18 1019.0 1019.1 0.0
25/02:30pm 17.4 11.6 10.8 65 3.6 WNW 32 41 17 22 1019.1 1019.2 0.0
25/02:00pm 18.1 13.9 11.2 64 3.8 W 24 33 13 18 1019.3 1019.4 0.0
25/01:30pm 17.8 12.5 11.1 65 3.6 WNW 30 41 16 22 1019.5 1019.6 0.0
25/01:00pm 16.7 11.3 10.8 68 3.2 WNW 30 39 16 21 1019.8 1019.9 0.0
25/12:30pm 16.6 11.5 10.7 68 3.2 NW 28 35 15 19 1020.2 1020.3 0.0
25/12:00pm 16.2 11.7 11.4 73 2.6 NW 26 33 14 18 1020.5 1020.6 0.0
25/11:30am 15.4 9.7 11.0 75 2.4 WNW 32 39 17 21 1021.0 1021.1 0.0
25/11:00am 15.8 10.8 11.0 73 2.6 NW 28 35 15 19 1021.2 1021.3 0.0
25/10:30am 14.5 9.3 10.1 75 2.3 NW 28 35 15 19 1021.6 1021.6 0.0
25/10:00am 14.5 10.9 10.7 78 2.0 NW 20 26 11 14 1021.4 1021.4 0.0
25/09:30am 13.4 10.4 10.8 84 1.4 NW 17 22 9 12 1021.5 1021.5 0.0
25/09:00am 12.3 9.4 11.0 92 0.7 NNW 17 22 9 12 1021.5 1021.5 0.0
25/08:30am 11.9 9.1 11.3 96 0.3 NNW 17 20 9 11 1021.4 1021.4 0.0
25/08:00am 11.7 9.2 11.1 96 0.3 N 15 17 8 9 1021.0 1021.1 0.0
25/07:30am 11.7 9.2 10.9 95 0.4 NNW 15 19 8 10 1021.0 1021.1 0.0
25/07:00am 11.8 8.5 10.9 94 0.5 NNW 19 22 10 12 1020.9 1021.0 0.0
25/06:30am 11.8 8.8 10.7 93 0.6 NNW 17 19 9 10 1020.8 1020.9 0.0
25/06:00am 11.8 8.8 10.5 92 0.7 NNW 17 20 9 11 1020.5 1020.6 0.0
25/05:30am 11.6 9.3 10.5 93 0.6 NNW 13 17 7 9 1020.3 1020.4 0.0
25/05:00am 11.7 9.4 10.6 93 0.6 NNW 13 17 7 9 1020.3 1020.4 0.0
25/04:30am 11.6 9.0 10.8 95 0.4 N 15 17 8 9 1020.2 1020.3 0.0
25/04:00am 11.6 9.4 10.8 95 0.4 NNW 13 15 7 8 1020.3 1020.4 0.0
25/03:30am 11.6 9.4 10.8 95 0.4 NNW 13 15 7 8 1020.3 1020.4 0.0
25/03:00am 11.6 9.4 10.7 94 0.5 NNW 13 17 7 9 1020.5 1020.6 0.0
25/02:30am 11.6 9.4 10.8 95 0.4 NNW 13 17 7 9 1020.4 1020.5 0.0
25/02:00am 11.5 9.3 10.7 95 0.4 NNW 13 15 7 8 1020.4 1020.5 0.0
25/01:30am 11.4 9.5 10.5 94 0.5 NNW 11 15 6 8 1020.5 1020.6 0.0
25/01:00am 11.3 9.0 10.5 95 0.4 NNW 13 13 7 7 1020.6 1020.7 0.0
25/12:30am 11.2 10.0 10.3 94 0.5 NNW 7 11 4 6 1020.6 1020.7 0.0
25/12:00am 11.1 9.9 10.2 94 0.5 NNW 7 9 4 5 1020.8 1020.9 0.0
 
Date/Time
EST
Temp
°C
App
Temp
°C
Dew
Point
°C
Rel
Hum
%
Delta-T
°C
Wind Press
QNH
hPa
Press
MSL
hPa
Rain since
9am
mm
Dir  Spd
km/h
Gust
km/h
Spd
kts
Gust
kts
24/11:30pm 11.5 10.4 10.6 94 0.5 WNW 7 11 4 6 1020.9 1021.0 0.0
24/11:00pm 11.3 9.4 10.4 94 0.5 WNW 11 13 6 7 1021.2 1021.3 0.0
24/10:30pm 11.3 9.7 10.2 93 0.6 W 9 13 5 7 1021.4 1021.4 0.0
24/10:00pm 11.0 8.7 10.4 96 0.3 W 13 17 7 9 1021.5 1021.5 0.0
24/09:30pm 9.7 7.4 9.1 96 0.3 WNW 11 13 6 7 1021.4 1021.4 0.0
24/09:00pm 8.9 6.4 8.0 94 0.4 WNW 11 13 6 7 1021.1 1021.2 0.0
24/08:30pm 9.8 7.0 8.7 93 0.5 W 13 15 7 8 1020.9 1021.0 0.0
24/08:00pm 10.0 7.3 8.8 92 0.6 W 13 15 7 8 1020.8 1020.9 0.0
24/07:30pm 11.4 9.2 9.5 88 1.0 W 11 13 6 7 1020.7 1020.8 0.0
24/07:00pm 12.1 9.7 10.2 88 1.0 W 13 17 7 9 1020.6 1020.7 0.0
24/06:30pm 12.6 10.2 10.1 85 1.3 W 13 17 7 9 1020.3 1020.4 0.0
24/06:00pm 12.9 8.4 9.9 82 1.5 W 24 33 13 18 1020.3 1020.4 0.0
24/05:30pm 13.7 11.7 10.3 80 1.8 W 11 13 6 7 1020.0 1020.1 0.0
24/05:00pm 14.1 11.3 9.9 76 2.2 WSW 15 20 8 11 1019.8 1019.9 0.0
24/04:30pm 15.3 11.5 9.9 70 2.8 WSW 20 26 11 14 1019.5 1019.6 0.0
24/04:00pm 15.4 11.4 8.9 65 3.3 W 20 28 11 15 1019.1 1019.2 0.0
24/03:30pm 15.3 11.3 9.2 67 3.2 W 20 26 11 14 1018.9 1019.0 0.0
24/03:00pm 15.3 11.5 9.0 66 3.2 WSW 19 26 10 14 1018.7 1018.8 0.0
24/02:30pm 15.6 11.2 8.8 64 3.5 W 22 28 12 15 1018.5 1018.6 0.0
24/02:00pm 14.9 10.5 9.1 68 3.0 WSW 22 28 12 15 1018.5 1018.6 0.0
24/01:30pm 15.5 10.2 8.3 62 3.7 WSW 26 39 14 21 1018.4 1018.5 0.0
24/01:00pm 15.8 11.0 9.0 64 3.5 SW 24 33 13 18 1018.4 1018.5 0.0
24/12:30pm 14.6 9.0 8.8 68 3.0 SW 28 37 15 20 1018.6 1018.7 0.0
24/12:00pm 15.2 11.4 9.8 70 2.8 WSW 20 30 11 16 1018.8 1018.9 0.0
24/11:30am 14.1 9.9 9.9 76 2.2 SW 22 28 12 15 1019.0 1019.1 0.0
24/11:06am 13.9 10.2 10.3 79 1.9 WSW 20 28 11 15 1019.0 1019.1 0.0
24/11:00am 13.7 10.3 10.5 81 1.7 WSW 19 30 10 16 1018.9 1019.0 0.0
24/10:30am 13.3 10.0 10.8 85 1.3 WSW 19 24 10 13 1018.8 1018.9 0.0
24/10:00am 12.2 8.8 10.6 90 0.8 WSW 19 24 10 13 1018.5 1018.6 0.0
24/09:30am 11.5 8.5 10.6 94 0.5 W 17 22 9 12 1018.2 1018.3 0.0
24/09:00am 11.1 8.1 10.5 96 0.3 W 17 20 9 11 1017.8 1017.9 0.2
24/08:36am 10.8 8.1 10.3 97 0.3 WNW 15 20 8 11 1017.3 1017.4 0.2
24/08:30am 10.6 7.8 10.1 97 0.3 WNW 15 19 8 10 1017.3 1017.4 0.2
24/08:00am 10.1 6.9 9.8 98 0.2 WNW 17 22 9 12 1016.9 1017.0 0.2
24/07:30am 9.6 6.2 9.3 98 0.1 WNW 17 20 9 11 1016.4 1016.5 0.2
24/07:00am 9.8 6.2 9.7 99 0.1 WNW 19 22 10 12 1016.1 1016.2 0.2
24/06:30am 8.9 5.4 8.6 98 0.1 WNW 17 20 9 11 1015.7 1015.8 0.2
24/06:00am 8.9 5.4 8.6 98 0.1 NW 17 22 9 12 1015.2 1015.2 0.2
24/05:30am 8.8 5.2 8.5 98 0.1 NW 17 20 9 11 1015.0 1015.0 0.2
24/05:00am 9.0 5.5 8.6 97 0.2 NW 17 20 9 11 1014.7 1014.7 0.2
24/04:30am 9.5 5.5 9.0 97 0.2 NW 20 22 11 12 1014.5 1014.5 0.2
24/04:00am 9.9 6.0 9.3 96 0.3 NW 20 22 11 12 1014.5 1014.5 0.2
24/03:30am 10.6 6.5 10.0 96 0.3 NW 22 24 12 13 1014.5 1014.5 0.2
24/03:00am 10.7 6.9 9.9 95 0.4 WNW 20 24 11 13 1014.6 1014.6 0.2
24/02:30am 10.6 8.1 9.8 95 0.4 WNW 13 17 7 9 1014.4 1014.4 0.0
24/02:00am 10.0 8.1 9.2 95 0.4 NW 9 13 5 7 1014.7 1014.7 0.0
24/01:30am 9.9 6.8 8.8 93 0.5 WNW 15 17 8 9 1014.7 1014.7 0.0
24/01:00am 10.5 6.1 8.8 89 0.8 WNW 22 28 12 15 1014.7 1014.7 0.0
24/12:30am 10.9 6.7 9.7 92 0.6 NW 22 28 12 15 1014.7 1014.7 0.0
24/12:00am 10.2 6.3 8.8 91 0.7 NW 19 24 10 13 1014.8 1014.8 0.0
 
Date/Time
EST
Temp
°C
App
Temp
°C
Dew
Point
°C
Rel
Hum
%
Delta-T
°C
Wind Press
QNH
hPa
Press
MSL
hPa
Rain since
9am
mm
Dir  Spd
km/h
Gust
km/h
Spd
kts
Gust
kts
23/11:30pm 9.1 5.8 8.0 93 0.5 NW 15 19 8 10 1015.0 1015.0 0.0
23/11:00pm 9.8 6.9 8.2 90 0.8 WNW 13 15 7 8 1015.2 1015.2 0.0
23/10:30pm 10.9 8.2 9.0 88 0.9 NW 13 17 7 9 1015.0 1015.0 0.0
23/10:00pm 12.1 9.2 9.5 84 1.3 W 15 19 8 10 1015.1 1015.1 0.0
23/09:30pm 12.5 8.2 9.3 81 1.6 W 22 30 12 16 1015.2 1015.2 0.0
23/09:00pm 10.0 6.3 7.9 87 1.0 NW 17 19 9 10 1015.1 1015.1 0.0
23/08:30pm 9.2 5.4 7.5 89 0.8 NW 17 19 9 10 1014.8 1014.8 0.0
23/08:00pm 9.6 5.8 7.7 88 0.9 NNW 17 19 9 10 1014.7 1014.7 0.0
23/07:30pm 10.1 6.4 7.9 86 1.1 NNW 17 19 9 10 1014.5 1014.5 0.0
23/07:00pm 10.6 7.4 8.5 87 1.0 NNW 15 17 8 9 1014.3 1014.3 0.0
23/06:30pm 11.0 7.8 8.6 85 1.2 NNW 15 15 8 8 1014.2 1014.2 0.0
23/06:00pm 12.4 10.4 8.7 78 1.9 NNW 9 11 5 6 1014.0 1014.0 0.0
23/05:30pm 13.2 11.0 9.5 78 1.9 NW 11 13 6 7 1014.0 1014.0 0.0
23/05:00pm 15.3 12.0 9.7 69 2.9 NW 17 17 9 9 1013.9 1013.9 0.0
23/04:30pm 16.9 13.5 9.3 61 4.0 NW 17 24 9 13 1014.0 1014.0 0.0
23/04:00pm 17.4 12.9 10.1 62 3.9 NW 24 32 13 17 1014.0 1014.0 0.0
23/03:30pm 17.4 14.0 11.4 68 3.3 NNW 20 28 11 15 1014.1 1014.1 0.0
23/03:00pm 17.6 15.5 12.3 71 2.9 WNW 15 20 8 11 1014.1 1014.1 0.0
23/02:30pm 17.4 14.8 12.1 71 2.9 NW 17 24 9 13 1014.2 1014.2 0.0
23/02:00pm 17.0 14.2 12.7 76 2.4 N 19 22 10 12 1014.7 1014.7 0.0
23/01:30pm 15.6 13.4 12.0 79 2.0 NNW 15 22 8 12 1015.2 1015.2 0.0
23/01:10pm 15.4 12.8 12.0 80 1.9 NW 17 22 9 12 1015.5 1015.5 0.0
23/01:00pm 15.5 12.4 11.7 78 2.1 NW 19 24 10 13 1015.6 1015.7 0.0
23/12:30pm 15.7 12.9 12.5 81 1.8 NW 19 22 10 12 1015.9 1016.0 0.0
23/12:00pm 14.6 11.7 12.3 86 1.3 WNW 19 22 10 12 1016.5 1016.6 0.0
23/11:30am 14.6 11.7 12.3 86 1.3 NNW 19 24 10 13 1016.6 1016.7 0.0
23/11:00am 14.3 12.1 12.0 86 1.2 NNW 15 19 8 10 1016.8 1016.9 0.0
23/10:52am 14.3 11.6 11.8 85 1.4 NNW 17 20 9 11 1017.0 1017.1 0.0
23/10:30am 14.5 12.8 12.4 87 1.2 NW 13 17 7 9 1017.3 1017.4 0.0
23/10:00am 13.9 10.9 12.1 89 1.0 NNW 19 22 10 12 1017.5 1017.6 0.0
23/09:30am 12.3 9.5 11.5 95 0.4 N 17 20 9 11 1017.7 1017.8 0.0
23/09:00am 11.9 9.9 11.4 97 0.3 N 13 17 7 9 1017.7 1017.8 3.0
23/08:30am 11.3 8.8 11.0 98 0.2 NNE 15 19 8 10 1017.7 1017.8 3.0
23/08:00am 10.7 8.4 10.4 98 0.2 NNE 13 17 7 9 1017.5 1017.6 3.0
23/07:30am 10.1 7.6 9.6 97 0.3 NNE 13 17 7 9 1017.2 1017.3 3.0
23/07:00am 10.2 8.1 9.7 97 0.3 N 11 13 6 7 1017.2 1017.3 3.0
23/06:30am 10.5 9.4 9.9 96 0.3 NNE 6 9 3 5 1016.9 1017.0 3.0
23/06:00am 10.5 8.8 9.9 96 0.3 NE 9 11 5 6 1016.5 1016.6 3.0
23/05:30am 11.0 8.7 10.4 96 0.3 NE 13 15 7 8 1016.3 1016.4 3.0
23/05:00am 11.4 10.0 10.8 96 0.3 ENE 9 15 5 8 1016.2 1016.3 3.0
23/04:30am 11.7 9.5 10.9 95 0.4 NE 13 17 7 9 1016.0 1016.1 3.0
23/04:00am 11.9 7.7 11.1 95 0.4 NE 24 26 13 14 1015.8 1015.9 2.8
23/03:30am 11.8 9.3 11.0 95 0.4 NE 15 17 8 9 1016.7 1016.8 2.8
23/03:00am 12.0 9.1 11.1 94 0.5 NNE 17 20 9 11 1017.2 1017.3 2.6
23/02:30am 11.9 11.4 10.6 92 0.7 NNE 4 11 2 6 1017.7 1017.8 1.4
23/02:00am 12.4 11.3 10.6 89 0.9 W 7 11 4 6 1017.5 1017.6 0.8
23/01:30am 12.4 9.8 10.6 89 0.9 W 15 19 8 10 1017.2 1017.3 0.8
23/01:00am 12.8 10.5 10.5 86 1.2 NW 13 19 7 10 1016.5 1016.6 0.6
23/12:30am 13.5 9.3 9.9 79 1.9 N 22 30 12 16 1017.4 1017.5 0.0
23/12:00am 12.9 9.7 10.1 83 1.4 NW 17 22 9 12 1017.5 1017.6 0.0
 
Date/Time
EST
Temp
°C
App
Temp
°C
Dew
Point
°C
Rel
Hum
%
Delta-T
°C
Wind Press
QNH
hPa
Press
MSL
hPa
Rain since
9am
mm
Dir  Spd
km/h
Gust
km/h
Spd
kts
Gust
kts
22/11:30pm 12.9 10.8 9.9 82 1.5 NNE 11 13 6 7 1016.7 1016.8 0.0
22/11:00pm 13.0 10.3 10.2 83 1.5 NNE 15 17 8 9 1017.1 1017.2 0.0
22/10:30pm 12.7 9.5 10.1 84 1.3 NNE 17 19 9 10 1017.1 1017.2 0.0
22/10:00pm 13.1 10.3 10.1 82 1.6 NE 15 19 8 10 1016.9 1017.0 0.0
22/09:30pm 13.0 9.9 10.2 83 1.5 NNE 17 20 9 11 1016.6 1016.7 0.0
22/09:00pm 13.0 9.3 10.0 82 1.6 NNE 20 22 11 12 1016.5 1016.6 0.0
22/08:30pm 13.7 10.0 10.1 79 1.9 NE 20 24 11 13 1016.1 1016.2 0.0
22/08:00pm 14.0 10.3 10.0 77 2.1 NNE 20 22 11 12 1016.7 1016.8 0.0
22/07:30pm 14.9 10.0 10.1 73 2.5 NNE 26 33 14 18 1016.4 1016.5 0.0
22/07:00pm 14.9 10.9 10.3 74 2.4 NE 22 28 12 15 1015.9 1016.0 0.0

Other Formats:

Comma delimited format used in spreadsheet applications
http://www.bom.gov.au/fwo/IDV60801/IDV60801.95839.axf

JavaScript Object Notation format (JSON) in row-major order
http://www.bom.gov.au/fwo/IDV60801/IDV60801.95839.json